63932 station(s) have been heard in the last 24 hours.

<< 274 275 276 277 278 279 280 >>
  Name/Id Latest heard Comment/Other Map
Symbol NARA6X263 1788440037 AEMET | Nivel NARANJA | Temperatura mxima 41C | Vlido 03/09 11:00-18:59Z | Barros y Serena Map
Symbol HS6HJP-C 1788440037 2m Voice (D-Star) 146.21250MHz +0.6000MHz Map
Symbol IR2UGE 1788440037 https://brandmeister.network/?page=repeater&id=222265 Map
Symbol SR4DIG 1788440037 DX: SQ4RBG-2 52.48.57N 22.49.77E 43,6km 213 14:22 Map
Symbol OK2ZAW-5 1788440037 _ACU=424_Sv.Hora_fet-zaw3.0_Solar+Meshtastic Map
Symbol R1ZCU-15 1788440037 b00-13955Temp.: 27.8 C. PreSsure: -1046.66 mmHg. Map
Symbol LU1AOZ-10 1788440037 VHF APRS iGate+Digi CABA Map
Symbol F8KFZ-10 1788440037 LoRa APRS - by F4BQN Batt=4.32V Map
Symbol OK2ZAW-21 1788440037 _ACU=424_Sv.Hora_fet-zaw3.0_Solar+Meshtastic Map
Symbol 2W0USK-D 1788440037 70cm MMDVM Voice (DMR) 434.50000MHz +0.0000MHz, APRS for DMRGateway Map
Symbol DH0GDE-10 1788440037 LoRa_APRS_iGate_Mllheim_Feldberg Map
Symbol EA2MKR B 1788440037 70cm Voice (D-Star) 438.50000MHz -7.6000MHz Map
Symbol SQ5MD-7 1788440037 `QRG SP5YAM_3 Map
Symbol K7RDG-10 1788440037 144.930MHz Winlink Packet Gateway Map
Symbol W4AP-1 1788440037 W4AP Digi #1 Map
Symbol N5AAA-1 1788440037 Spring Hill TN Igate Map
Symbol BI4WQB-10 1788440037 BI4WQB (Audio) Map
Symbol N2WLS-P 1788440037 440 Voice 444.28750MHz +5.0000MHz Map
Symbol LZFF0247 1788440037 LZ2AF/P 14044 CW LZFF-0247, Plazh Shkorpilovtsi Map
Symbol DF3IS-5 1788440037 DF3IS LoRa Tracker - _Bat.: 3.82V - Cur.: -106mA Map
Symbol PY2KBH-C 1788440037 2m Voice (D-Star) 145.43000MHz -0.6000MHz, APRS for ircDDBGateway Map
Symbol KC0WKP B 1788440037 70cm Voice (D-Star) 442.10000MHz +5.0000MHz Map
Symbol WB7DRJ C 1788440037 440 Voice 432.50000MHz +0.0000MHz Map
Symbol CE4PLU-10 1788440037 APRS RC PICHILEMU Batt=4.24V Map
Symbol IR1ZWZ 1788440037 RD625 430.8250/435.8250 CC1 Map
Symbol 9A7KXP-13 1788440037 Map
Symbol DF1XC-7 1788440037 PicoAPRS - iGate DF1XC Map
Symbol BD8CMN-10 1788440037 Tongxiang APRS IGate 144.640MHz Map
Symbol AA5KD 1788440037 SharkRF openSPOT3 Map
Symbol DO1TS-N 1788440037 70cm MMDVM Voice (C4FM) 433.45000MHz +0.0000MHz, DO1TS_Pi-Star_ND Map
Symbol F1UPT-7 1788440037 `73 de noel_0 Map
Symbol 145.712SD 1788440037 145.712MHz C123 -060 R20k SR8S Swidnik Map
Symbol EB7BZA-15 1788440037 5.16V 27C 59%RH 1033hPa Map
Symbol N2WLS P 1788440037 440 Voice 444.28750MHz +5.0000MHz Map
Symbol SR8SDI-2 1788440037 Digi Swidnik UHF (WIDE,SD,SP) SysOp SQ8EP Map
Symbol HK7LT-10 1788440037 -iGate- LIGATUNJA HK NET U=13.6V, Map
Symbol DG4MNU-10 1788440037 Map
Symbol K8GIS 1788440037 Map
Symbol BV4HW-3 1788440037 TMMARC https://www.tmmarc.org [Taichung Xitun APRS Digipeater] Map
Symbol DG1FBA-13 1788440037 B=100 Map
Symbol AE6DC-2 1788440036 Map
Symbol 9Y4DA B 1788440036 70cm Voice (D-Star) 433.50000MHz +0.0000MHz Map
Symbol S51SK-10 1788440036 LoRa APRS Batt=4.09V Map
Symbol JK1RWO-9 1788440036 `_4 Map
Symbol IR0ZYD 1788440036 https://brandmeister.network/?page=repeater&id=222256 Map
Symbol NARA6SFAC 1788440036 AEMET | Nivel NARANJA | Temperatura mxima 42C | Vlido 03/09 11:00-18:59Z | Campina cordobesa Map
Symbol AD5AO B 1788440036 70cm Voice (D-Star) 441.00000MHz +0.0000MHz Map
Symbol SV8FES B 1788440036 70cm Voice (D-Star) 434.45000MHz +0.0000MHz Map
Symbol PA3HFJ-7 1788440036 PA3HFJ via smartphone Map
Symbol CT2JTR-N 1788440036 70cm MMDVM Voice (C4FM) 430.05000MHz +0.0000MHz, CT2JTR_Pi-Star_ND Map